createdAt,value
2022-08-16T00:00:45.939Z,27.33
2022-08-16T00:03:14.701Z,27.98
2022-08-16T00:05:48.608Z,28.88
2022-08-16T00:11:04.789Z,27.65
2022-08-16T00:13:41.690Z,27.75
2022-08-16T00:17:05.735Z,27.50
2022-08-16T00:18:56.983Z,25.77
2022-08-16T00:21:25.456Z,24.45
2022-08-16T00:23:56.047Z,25.25
2022-08-16T00:26:36.292Z,24.40
2022-08-16T00:29:12.534Z,23.48
2022-08-16T00:31:59.652Z,25.27
2022-08-16T00:34:41.301Z,25.15
2022-08-16T00:37:17.047Z,28.65
2022-08-16T00:39:47.198Z,28.65
2022-08-16T00:42:29.569Z,28.67
2022-08-16T00:45:08.437Z,30.77
2022-08-16T00:47:39.295Z,28.98
2022-08-16T00:50:11.400Z,30.38
2022-08-16T00:52:50.393Z,30.02
2022-08-16T00:55:20.833Z,28.67
2022-08-16T00:57:59.572Z,30.77
2022-08-16T01:00:30.560Z,29.45
2022-08-16T01:03:01.147Z,28.25
2022-08-16T01:05:29.278Z,28.92
2022-08-16T01:07:58.517Z,30.58
2022-08-16T01:10:32.611Z,28.92
2022-08-16T01:13:08.428Z,28.60
2022-08-16T01:15:44.000Z,30.25
2022-08-16T01:18:39.285Z,26.30
2022-08-16T01:21:22.644Z,29.90
2022-08-16T01:24:51.754Z,29.17
2022-08-16T01:27:05.601Z,31.08
2022-08-16T01:29:57.561Z,30.67
2022-08-16T01:32:31.872Z,30.08
2022-08-16T01:35:01.020Z,30.25
2022-08-16T01:37:27.924Z,31.08
2022-08-16T01:40:07.281Z,28.92
2022-08-16T01:42:34.648Z,36.25
2022-08-16T01:45:01.979Z,33.10
2022-08-16T01:47:29.520Z,31.60
2022-08-16T01:51:04.977Z,31.00
2022-08-16T01:52:47.518Z,32.38
2022-08-16T01:55:17.917Z,33.08
2022-08-16T01:57:53.679Z,33.10
2022-08-16T02:00:29.299Z,30.00
2022-08-16T02:02:57.241Z,29.10
2022-08-16T02:05:24.259Z,29.83
2022-08-16T02:07:52.295Z,29.77
2022-08-16T02:10:20.875Z,25.40
2022-08-16T02:12:51.726Z,26.98
2022-08-16T02:15:27.167Z,25.45
2022-08-16T02:17:56.665Z,29.50
2022-08-16T02:20:26.142Z,28.25
2022-08-16T02:22:56.491Z,29.48
2022-08-16T02:25:23.966Z,29.13
2022-08-16T02:27:51.798Z,28.35
2022-08-16T02:30:35.758Z,29.38
2022-08-16T02:33:06.478Z,29.63
2022-08-16T02:35:34.206Z,26.83
2022-08-16T02:38:16.973Z,28.13
2022-08-16T02:40:46.058Z,29.70
2022-08-16T02:43:13.710Z,31.13
2022-08-16T02:45:41.772Z,30.25
2022-08-16T02:48:29.133Z,29.15
2022-08-16T02:51:10.811Z,30.35
2022-08-16T02:53:43.242Z,30.08
2022-08-16T02:56:15.184Z,36.30
2022-08-16T02:58:44.136Z,31.00
2022-08-16T03:01:24.050Z,33.90
2022-08-16T03:04:39.927Z,34.42
2022-08-16T03:06:43.161Z,28.83
2022-08-16T03:09:13.838Z,30.65
2022-08-16T03:11:42.287Z,29.45
2022-08-16T03:14:09.308Z,26.83
2022-08-16T03:16:42.305Z,29.48
2022-08-16T03:19:26.442Z,29.15
2022-08-16T03:22:19.564Z,32.10
2022-08-16T03:24:57.452Z,32.22
2022-08-16T03:27:25.455Z,32.40
2022-08-16T03:29:59.743Z,32.78
2022-08-16T03:32:26.866Z,32.53
2022-08-16T03:34:54.118Z,35.00
2022-08-16T03:37:21.093Z,35.55
2022-08-16T03:39:48.044Z,32.60
2022-08-16T03:42:23.328Z,31.88
2022-08-16T03:44:50.543Z,32.33
2022-08-16T03:47:19.793Z,30.92
2022-08-16T03:49:51.901Z,30.88
2022-08-16T03:52:23.510Z,25.98
2022-08-16T03:54:57.498Z,29.85
2022-08-16T03:57:31.706Z,25.23
2022-08-16T04:00:35.156Z,28.00
2022-08-16T04:03:07.095Z,29.25
2022-08-16T04:08:23.111Z,28.92
2022-08-16T04:10:54.317Z,30.40
2022-08-16T04:14:01.277Z,29.05
2022-08-16T04:16:26.708Z,25.92
2022-08-16T04:19:02.725Z,29.48
2022-08-16T04:21:33.403Z,25.17
2022-08-16T04:24:01.459Z,28.70
2022-08-16T04:26:30.745Z,25.60
2022-08-16T04:29:17.137Z,26.48
2022-08-16T04:31:55.532Z,27.95
2022-08-16T04:34:24.777Z,26.08
2022-08-16T04:36:52.248Z,24.65
2022-08-16T04:39:23.855Z,25.90
2022-08-16T04:41:57.054Z,24.70
2022-08-16T04:44:52.904Z,25.60
2022-08-16T04:47:21.715Z,26.08
2022-08-16T04:49:52.352Z,24.88
2022-08-16T04:52:33.458Z,21.55
2022-08-16T04:55:09.485Z,21.33
2022-08-16T04:57:37.172Z,20.80
2022-08-16T05:00:30.759Z,18.75
2022-08-16T05:03:01.290Z,16.88
2022-08-16T05:05:30.663Z,16.80
2022-08-16T05:08:28.470Z,15.70
2022-08-16T05:10:50.710Z,16.80
2022-08-16T05:13:19.231Z,17.85
2022-08-16T05:15:47.666Z,17.50
2022-08-16T05:18:18.277Z,16.88
2022-08-16T05:21:01.753Z,18.27
2022-08-16T05:23:36.910Z,18.33
2022-08-16T05:26:04.604Z,17.80
2022-08-16T05:28:37.542Z,18.80
2022-08-16T05:31:06.819Z,19.13
2022-08-16T05:33:34.075Z,18.33
2022-08-16T05:36:03.870Z,20.35
2022-08-16T05:38:38.966Z,18.70
2022-08-16T05:41:07.568Z,19.50
2022-08-16T05:43:43.405Z,19.20
2022-08-16T05:46:29.747Z,19.02
2022-08-16T05:49:08.576Z,18.27
2022-08-16T05:51:38.955Z,20.83
2022-08-16T05:54:13.953Z,19.65
2022-08-16T05:56:42.929Z,18.20
2022-08-16T05:59:10.948Z,19.70
2022-08-16T06:01:39.182Z,19.80
2022-08-16T06:04:13.612Z,18.92
2022-08-16T06:11:09.981Z,17.70
2022-08-16T06:13:32.683Z,17.75
2022-08-16T06:15:59.697Z,17.10
2022-08-16T06:18:27.306Z,17.67
2022-08-16T06:20:55.686Z,18.08
2022-08-16T06:23:24.008Z,17.15
2022-08-16T06:25:52.901Z,18.60
2022-08-16T06:28:35.767Z,18.17
2022-08-16T06:31:05.772Z,18.43
2022-08-16T06:33:40.270Z,17.88
2022-08-16T06:36:09.444Z,17.63
2022-08-16T06:38:56.793Z,18.65
2022-08-16T06:41:27.619Z,19.25
2022-08-16T06:43:55.095Z,19.23
2022-08-16T06:46:31.302Z,18.38
2022-08-16T06:48:59.164Z,19.10
2022-08-16T06:51:46.233Z,17.48
2022-08-16T06:54:14.030Z,17.35
2022-08-16T07:00:30.147Z,18.70
2022-08-16T07:02:57.679Z,19.00
2022-08-16T07:05:27.248Z,17.08
2022-08-16T07:08:11.329Z,18.10
2022-08-16T07:10:38.772Z,16.90
2022-08-16T07:13:11.985Z,17.60
2022-08-16T07:15:41.293Z,17.23
2022-08-16T07:18:20.351Z,17.27
2022-08-16T07:20:49.460Z,17.52
2022-08-16T07:23:17.509Z,17.48
2022-08-16T07:25:46.348Z,17.40
2022-08-16T07:28:20.835Z,16.98
2022-08-16T07:30:51.154Z,17.30
2022-08-16T07:33:52.575Z,16.77
2022-08-16T07:36:09.799Z,19.73
2022-08-16T07:38:37.028Z,16.58
2022-08-16T07:41:09.861Z,16.73
2022-08-16T07:43:40.466Z,16.33
2022-08-16T07:46:37.795Z,15.73
2022-08-16T07:49:02.405Z,17.65
2022-08-16T07:55:18.703Z,15.80
2022-08-16T07:57:58.013Z,15.48
2022-08-16T08:00:28.157Z,15.93
2022-08-16T08:02:58.512Z,14.93
2022-08-16T08:05:36.752Z,15.52
2022-08-16T08:08:11.958Z,16.23
2022-08-16T08:10:52.457Z,15.70
2022-08-16T08:13:19.343Z,15.45
2022-08-16T08:16:06.335Z,16.25
2022-08-16T08:18:33.315Z,16.13
2022-08-16T08:21:00.265Z,15.60
2022-08-16T08:23:27.778Z,14.35
2022-08-16T08:25:55.887Z,15.90
2022-08-16T08:28:23.098Z,15.98
2022-08-16T08:31:01.095Z,14.60
2022-08-16T08:33:31.671Z,15.20
2022-08-16T08:36:01.236Z,15.00
2022-08-16T08:38:43.747Z,14.15
2022-08-16T08:41:18.211Z,14.05
2022-08-16T08:43:46.832Z,13.90
2022-08-16T08:46:21.466Z,14.07
2022-08-16T08:48:59.947Z,13.80
2022-08-16T08:51:35.845Z,13.38
2022-08-16T08:54:09.276Z,12.75
2022-08-16T08:56:45.175Z,13.45
2022-08-16T08:59:19.760Z,13.02
2022-08-16T09:01:57.403Z,13.15
2022-08-16T09:04:26.967Z,13.45
2022-08-16T09:06:55.158Z,12.07
2022-08-16T09:09:23.330Z,12.55
2022-08-16T09:12:04.155Z,13.65
2022-08-16T09:14:35.305Z,11.98
2022-08-16T09:17:11.694Z,12.15
2022-08-16T09:19:44.733Z,12.88
2022-08-16T09:22:20.142Z,11.40
2022-08-16T09:24:52.450Z,11.95
2022-08-16T09:27:25.087Z,11.95
2022-08-16T09:33:41.961Z,12.13
2022-08-16T09:36:12.255Z,11.60
2022-08-16T09:38:59.845Z,11.70
2022-08-16T09:41:27.192Z,11.10
2022-08-16T09:43:59.648Z,10.98
2022-08-16T09:46:45.947Z,12.00
2022-08-16T09:49:16.822Z,11.98
2022-08-16T09:51:49.589Z,9.88
2022-08-16T09:54:20.892Z,10.18
2022-08-16T09:56:52.638Z,9.73
2022-08-16T09:59:22.378Z,9.88
2022-08-16T10:01:51.652Z,9.77
2022-08-16T10:04:30.497Z,9.15
2022-08-16T10:09:44.824Z,10.05
2022-08-16T10:12:34.492Z,10.30
2022-08-16T10:15:09.951Z,9.75
2022-08-16T10:17:43.636Z,9.43
2022-08-16T10:20:17.806Z,8.75
2022-08-16T10:22:46.147Z,8.88
2022-08-16T10:27:17.691Z,8.90
2022-08-16T10:28:27.533Z,9.57
2022-08-16T10:30:47.570Z,9.38
2022-08-16T10:33:23.638Z,9.32
2022-08-16T10:35:50.492Z,8.52
2022-08-16T10:38:27.104Z,8.23
2022-08-16T10:40:54.772Z,8.63
2022-08-16T10:43:21.754Z,8.93
2022-08-16T10:46:00.423Z,7.88
2022-08-16T10:48:29.072Z,7.47
2022-08-16T10:50:59.000Z,7.95
2022-08-16T10:53:33.030Z,7.93
2022-08-16T10:56:02.843Z,8.27
2022-08-16T10:58:34.524Z,10.13
2022-08-16T11:03:50.441Z,8.07
2022-08-16T11:12:57.134Z,9.18
2022-08-16T11:15:26.291Z,8.32
2022-08-16T11:20:49.394Z,8.00
2022-08-16T11:23:17.819Z,8.10
2022-08-16T11:26:16.485Z,7.55
2022-08-16T11:31:20.223Z,8.75
2022-08-16T11:33:52.801Z,8.32
2022-08-16T11:36:27.449Z,7.93
2022-08-16T11:39:00.398Z,7.72
2022-08-16T11:41:29.389Z,7.00
2022-08-16T11:43:58.199Z,6.95
2022-08-16T11:46:45.012Z,7.85
2022-08-16T11:49:13.924Z,7.20
2022-08-16T11:51:44.199Z,7.80
2022-08-16T11:54:20.323Z,8.20
2022-08-16T11:56:52.882Z,7.38
2022-08-16T11:59:28.554Z,7.95
2022-08-16T12:01:59.952Z,7.13
2022-08-16T12:04:32.342Z,7.97
2022-08-16T12:07:01.207Z,7.03
2022-08-16T12:09:30.441Z,7.15
2022-08-16T12:11:58.480Z,7.57
2022-08-16T12:14:35.288Z,7.32
2022-08-16T12:17:03.758Z,7.10
2022-08-16T12:19:33.739Z,7.80
2022-08-16T12:22:05.543Z,7.07
2022-08-16T12:24:33.193Z,7.15
2022-08-16T12:27:00.978Z,6.95
2022-08-16T12:29:29.969Z,6.53
2022-08-16T12:32:00.771Z,7.50
2022-08-16T12:34:50.663Z,6.63
2022-08-16T12:37:20.321Z,7.15
2022-08-16T12:39:51.405Z,7.05
2022-08-16T12:42:20.597Z,7.88
2022-08-16T12:44:50.309Z,8.00
2022-08-16T12:47:36.651Z,8.30
2022-08-16T12:50:10.449Z,8.20
2022-08-16T12:56:33.845Z,8.48
2022-08-16T12:59:03.559Z,8.05
2022-08-16T13:01:33.512Z,9.00
2022-08-16T13:04:12.428Z,8.18
2022-08-16T13:06:52.023Z,8.98
2022-08-16T13:09:26.485Z,9.23
2022-08-16T13:12:01.811Z,9.13
2022-08-16T13:14:39.849Z,9.35
2022-08-16T13:17:18.531Z,9.35
2022-08-16T13:26:21.662Z,9.73
2022-08-16T13:28:48.566Z,9.23
2022-08-16T13:31:16.792Z,9.93
2022-08-16T13:33:44.558Z,10.27
2022-08-16T13:36:32.298Z,8.70
2022-08-16T13:39:01.786Z,9.75
2022-08-16T13:41:30.125Z,9.32
2022-08-16T13:44:00.895Z,8.82
2022-08-16T13:46:34.286Z,9.57
2022-08-16T13:49:01.715Z,9.73
2022-08-16T13:51:30.580Z,8.98
2022-08-16T13:54:03.797Z,9.98
2022-08-16T13:56:38.827Z,9.68
2022-08-16T13:59:14.347Z,9.38
2022-08-16T14:01:59.629Z,10.18
2022-08-16T14:04:31.948Z,10.52
2022-08-16T14:07:00.277Z,8.80
2022-08-16T14:09:30.300Z,9.63
2022-08-16T14:12:00.848Z,9.32
2022-08-16T14:14:30.202Z,9.25
2022-08-16T14:16:59.841Z,9.10
2022-08-16T14:19:29.703Z,9.95
2022-08-16T14:22:14.041Z,9.70
2022-08-16T14:24:46.614Z,9.35
2022-08-16T14:27:18.521Z,9.88
2022-08-16T14:29:49.440Z,10.70
2022-08-16T14:32:33.664Z,10.07
2022-08-16T14:35:07.143Z,9.70
2022-08-16T14:37:35.041Z,10.45
2022-08-16T14:40:03.594Z,10.57
2022-08-16T14:42:30.763Z,10.95
2022-08-16T14:44:57.761Z,11.43
2022-08-16T14:47:34.353Z,11.13
2022-08-16T14:50:02.383Z,11.13
2022-08-16T14:52:53.958Z,11.23
2022-08-16T14:55:17.272Z,10.88
2022-08-16T14:57:44.577Z,10.80
2022-08-16T15:00:13.208Z,11.40
2022-08-16T15:02:42.752Z,11.23
2022-08-16T15:05:11.947Z,10.07
2022-08-16T15:07:40.138Z,10.40
2022-08-16T15:10:21.486Z,9.13
2022-08-16T15:12:54.247Z,8.73
2022-08-16T15:15:26.189Z,9.18
2022-08-16T15:17:56.999Z,8.25
2022-08-16T15:20:26.877Z,6.65
2022-08-16T15:22:57.074Z,6.00
2022-08-16T15:25:29.718Z,5.80
2022-08-16T15:27:57.912Z,5.22
2022-08-16T15:30:56.739Z,6.65
2022-08-16T15:33:19.862Z,5.72
2022-08-16T15:35:50.310Z,5.72
2022-08-16T15:38:58.148Z,5.88
2022-08-16T15:41:05.171Z,6.15
2022-08-16T15:43:38.922Z,6.60
2022-08-16T15:46:54.201Z,6.00
2022-08-16T15:49:12.121Z,6.00
2022-08-16T15:51:39.755Z,7.35
2022-08-16T15:54:29.154Z,7.28
2022-08-16T15:56:55.431Z,6.93
2022-08-16T16:03:17.588Z,9.13
2022-08-16T16:05:47.595Z,10.40
2022-08-16T16:08:20.230Z,11.10
2022-08-16T16:10:54.437Z,13.18
2022-08-16T16:13:22.626Z,12.48
2022-08-16T16:15:55.049Z,13.25
2022-08-16T16:18:24.740Z,18.25
2022-08-16T16:20:56.119Z,11.57
2022-08-16T16:23:26.844Z,11.45
2022-08-16T16:25:56.948Z,9.30
2022-08-16T16:29:06.457Z,9.98
2022-08-16T16:31:17.580Z,9.20
2022-08-16T16:33:47.899Z,9.27
2022-08-16T16:36:19.940Z,8.88
2022-08-16T16:38:48.694Z,9.20
2022-08-16T16:41:22.566Z,9.77
2022-08-16T16:43:53.544Z,9.18
2022-08-16T16:46:41.341Z,10.35
2022-08-16T16:49:12.351Z,9.57
2022-08-16T16:51:47.031Z,9.50
2022-08-16T16:54:22.459Z,10.30
2022-08-16T16:56:56.475Z,9.43
2022-08-16T16:59:28.038Z,8.75
2022-08-16T17:02:38.624Z,10.13
2022-08-16T17:04:43.392Z,9.38
2022-08-16T17:07:12.341Z,10.45
2022-08-16T17:09:40.994Z,9.23
2022-08-16T17:12:10.277Z,10.82
2022-08-16T17:17:29.647Z,10.77
2022-08-16T17:19:56.725Z,10.20
2022-08-16T17:22:33.086Z,8.82
2022-08-16T17:25:00.528Z,10.15
2022-08-16T17:27:32.530Z,10.20
2022-08-16T17:30:15.569Z,11.03
2022-08-16T17:32:54.336Z,10.63
2022-08-16T17:35:34.331Z,12.60
2022-08-16T17:38:06.172Z,11.25
2022-08-16T17:40:50.376Z,10.90
2022-08-16T17:43:30.539Z,12.77
2022-08-16T17:45:58.545Z,13.48
2022-08-16T17:48:26.122Z,12.40
2022-08-16T17:50:54.773Z,11.13
2022-08-16T17:53:22.429Z,11.52
2022-08-16T17:55:50.663Z,11.75
2022-08-16T17:58:23.730Z,13.02
2022-08-16T18:00:56.534Z,13.15
2022-08-16T18:04:03.166Z,12.65
2022-08-16T18:06:18.796Z,14.27
2022-08-16T18:08:48.995Z,13.68
2022-08-16T18:11:25.657Z,13.10
2022-08-16T18:13:53.953Z,15.10
2022-08-16T18:16:20.850Z,16.13
2022-08-16T18:18:47.695Z,16.73
2022-08-16T18:21:34.017Z,16.98
2022-08-16T18:24:01.254Z,15.15
2022-08-16T18:26:28.295Z,16.52
2022-08-16T18:28:55.178Z,19.98
2022-08-16T18:31:22.129Z,18.48
2022-08-16T18:33:49.582Z,16.67
2022-08-16T18:36:21.887Z,16.40
2022-08-16T18:38:50.142Z,16.85
2022-08-16T18:41:18.140Z,17.05
2022-08-16T18:44:22.510Z,18.98
2022-08-16T18:46:31.976Z,18.42
2022-08-16T18:48:59.043Z,17.52
2022-08-16T18:55:14.826Z,18.75
2022-08-16T18:57:42.092Z,18.90
2022-08-16T19:00:12.202Z,17.65
2022-08-16T19:02:57.506Z,20.60
2022-08-16T19:05:27.558Z,20.52
2022-08-16T19:07:54.593Z,18.63
2022-08-16T19:10:21.525Z,18.30
2022-08-16T19:12:48.584Z,19.10
2022-08-16T19:15:18.754Z,19.50
2022-08-16T19:17:46.369Z,18.23
2022-08-16T19:20:15.737Z,18.88
2022-08-16T19:25:46.602Z,18.35
2022-08-16T19:28:49.993Z,16.58
2022-08-16T19:31:08.833Z,16.70
2022-08-16T19:33:37.111Z,16.80
2022-08-16T19:36:04.994Z,17.67
2022-08-16T19:38:31.861Z,17.25
2022-08-16T19:40:58.871Z,19.30
2022-08-16T19:43:25.815Z,17.58
2022-08-16T19:45:53.753Z,18.48
2022-08-16T19:48:21.227Z,16.48
2022-08-16T19:50:48.152Z,18.33
2022-08-16T19:53:18.758Z,18.13
2022-08-16T19:55:47.253Z,17.75
2022-08-16T19:58:18.514Z,15.98
2022-08-16T20:00:47.270Z,15.88
2022-08-16T20:03:21.825Z,16.52
2022-08-16T20:05:50.481Z,13.75
2022-08-16T20:11:59.304Z,17.52
2022-08-16T20:14:26.699Z,18.52
2022-08-16T20:16:59.463Z,18.73
2022-08-16T20:19:32.551Z,18.88
2022-08-16T20:25:29.139Z,16.27
2022-08-16T20:27:57.588Z,17.02
2022-08-16T20:30:25.702Z,17.40
2022-08-16T20:32:53.839Z,15.88
2022-08-16T20:35:23.656Z,16.13
2022-08-16T20:37:50.677Z,15.50
2022-08-16T20:40:34.718Z,15.45
2022-08-16T20:43:12.095Z,14.57
2022-08-16T20:45:41.427Z,13.70
2022-08-16T20:48:08.751Z,13.75
2022-08-16T20:50:36.524Z,15.75
2022-08-16T20:53:05.531Z,15.23
2022-08-16T20:55:35.661Z,15.02
2022-08-16T20:58:02.655Z,15.90
2022-08-16T21:00:29.790Z,15.55
2022-08-16T21:02:56.703Z,16.10
2022-08-16T21:05:31.079Z,14.57
2022-08-16T21:07:59.185Z,14.70
2022-08-16T21:10:26.294Z,14.52
2022-08-16T21:12:56.197Z,15.30
2022-08-16T21:15:26.159Z,15.32
2022-08-16T21:17:53.823Z,14.68
2022-08-16T21:20:22.865Z,15.45
2022-08-16T21:22:59.008Z,15.43
2022-08-16T21:25:26.095Z,16.60
2022-08-16T21:28:41.021Z,16.48
2022-08-16T21:30:40.201Z,15.50
2022-08-16T21:33:13.493Z,17.30
2022-08-16T21:35:42.341Z,16.57
2022-08-16T21:38:28.742Z,16.35
2022-08-16T21:40:57.978Z,16.85
2022-08-16T21:43:25.533Z,16.77
2022-08-16T21:45:55.832Z,19.10
2022-08-16T21:48:34.958Z,15.95
2022-08-16T21:51:08.349Z,16.15
2022-08-16T21:53:36.303Z,15.65
2022-08-16T21:56:23.356Z,16.13
2022-08-16T21:58:52.901Z,16.10
2022-08-16T22:05:08.319Z,15.00
2022-08-16T22:07:35.265Z,14.75
2022-08-16T22:11:04.557Z,14.77
2022-08-16T22:12:49.287Z,14.60
2022-08-16T22:15:19.895Z,14.23
2022-08-16T22:20:28.493Z,15.55
2022-08-16T22:23:14.305Z,16.30
2022-08-16T22:25:47.185Z,16.45
2022-08-16T22:28:15.566Z,17.83
2022-08-16T22:30:42.955Z,17.25
2022-08-16T22:33:13.333Z,16.45
2022-08-16T22:35:46.481Z,16.60
2022-08-16T22:38:54.046Z,18.80
2022-08-16T22:41:02.750Z,16.35
2022-08-16T22:43:31.976Z,19.17
2022-08-16T22:45:59.399Z,17.30
2022-08-16T22:48:26.286Z,18.95
2022-08-16T22:50:53.176Z,18.30
2022-08-16T22:53:20.497Z,17.83
2022-08-16T22:55:47.468Z,20.10
2022-08-16T22:58:14.328Z,18.10
2022-08-16T23:00:41.485Z,17.67
2022-08-16T23:03:17.564Z,20.75
2022-08-16T23:05:50.402Z,21.45
2022-08-16T23:08:32.166Z,20.02
2022-08-16T23:11:06.809Z,19.80
2022-08-16T23:13:34.245Z,20.13
2022-08-16T23:16:10.993Z,19.83
2022-08-16T23:18:40.226Z,21.45
2022-08-16T23:21:10.145Z,19.95
2022-08-16T23:23:38.378Z,21.35
2022-08-16T23:26:43.984Z,20.20
2022-08-16T23:28:53.473Z,19.38
2022-08-16T23:31:20.438Z,20.90
2022-08-16T23:33:47.331Z,22.33
2022-08-16T23:36:14.216Z,21.63
2022-08-16T23:38:41.881Z,23.40
2022-08-16T23:41:12.030Z,20.83
2022-08-16T23:43:44.259Z,21.27
2022-08-16T23:46:17.369Z,21.05
2022-08-16T23:50:01.280Z,22.13
2022-08-16T23:51:32.580Z,21.85
2022-08-16T23:54:00.123Z,21.00
2022-08-16T23:56:27.104Z,22.75
2022-08-16T23:59:02.891Z,20.80
